createdAt,value
2023-02-17T00:01:13.410Z,100.00
2023-02-17T00:03:40.196Z,100.00
2023-02-17T00:06:09.159Z,100.00
2023-02-17T00:08:35.917Z,100.00
2023-02-17T00:11:02.786Z,100.00
2023-02-17T00:13:31.648Z,100.00
2023-02-17T00:15:58.708Z,100.00
2023-02-17T00:18:25.629Z,100.00
2023-02-17T00:20:52.447Z,100.00
2023-02-17T00:23:19.190Z,100.00
2023-02-17T00:25:45.836Z,100.00
2023-02-17T00:28:12.481Z,100.00
2023-02-17T00:30:39.398Z,100.00
2023-02-17T00:33:06.505Z,100.00
2023-02-17T00:35:33.377Z,100.00
2023-02-17T00:38:00.109Z,100.00
2023-02-17T00:40:26.762Z,100.00
2023-02-17T00:42:54.863Z,100.00
2023-02-17T00:45:21.849Z,100.00
2023-02-17T00:47:48.755Z,100.00
2023-02-17T00:50:17.014Z,100.00
2023-02-17T00:52:43.672Z,100.00
2023-02-17T00:55:10.336Z,100.00
2023-02-17T00:57:37.094Z,100.00
2023-02-17T01:00:04.685Z,100.00
2023-02-17T01:02:33.216Z,100.00
2023-02-17T01:05:00.045Z,100.00
2023-02-17T01:07:26.731Z,100.00
2023-02-17T01:09:53.377Z,100.00
2023-02-17T01:12:20.115Z,100.00
2023-02-17T01:14:46.732Z,100.00
2023-02-17T01:17:13.447Z,100.00
2023-02-17T01:19:40.131Z,100.00
2023-02-17T01:22:06.863Z,100.00
2023-02-17T01:24:33.547Z,100.00
2023-02-17T01:27:02.390Z,100.00
2023-02-17T01:29:28.975Z,100.00
2023-02-17T01:31:56.018Z,100.00
2023-02-17T01:34:22.748Z,100.00
2023-02-17T01:36:49.415Z,100.00
2023-02-17T01:39:16.813Z,100.00
2023-02-17T01:41:46.304Z,100.00
2023-02-17T01:44:15.120Z,100.00
2023-02-17T01:46:47.274Z,100.00
2023-02-17T01:49:23.427Z,100.00
2023-02-17T01:51:58.887Z,100.00
2023-02-17T01:54:33.985Z,100.00
2023-02-17T01:57:02.219Z,100.00
2023-02-17T01:59:30.981Z,100.00
2023-02-17T02:02:00.668Z,100.00
2023-02-17T02:04:32.486Z,100.00
2023-02-17T02:07:00.007Z,100.00
2023-02-17T02:09:36.473Z,100.00
2023-02-17T02:12:03.656Z,100.00
2023-02-17T02:14:31.972Z,100.00
2023-02-17T02:17:04.835Z,100.00
2023-02-17T02:19:46.826Z,100.00
2023-02-17T02:22:50.965Z,100.00
2023-02-17T02:25:46.321Z,100.00
2023-02-17T02:28:35.902Z,100.00
2023-02-17T02:31:27.912Z,100.00
2023-02-17T02:34:01.715Z,100.00
2023-02-17T02:36:38.931Z,100.00
2023-02-17T02:39:20.808Z,100.00
2023-02-17T02:41:53.022Z,100.00
2023-02-17T02:44:21.459Z,100.00
2023-02-17T02:47:05.116Z,100.00
2023-02-17T02:49:35.473Z,100.00
2023-02-17T02:52:42.744Z,100.00
2023-02-17T02:55:36.375Z,100.00
2023-02-17T02:58:41.236Z,100.00
2023-02-17T03:01:34.644Z,100.00
2023-02-17T03:04:12.627Z,100.00
2023-02-17T03:06:56.999Z,100.00
2023-02-17T03:09:28.026Z,100.00
2023-02-17T03:11:57.050Z,100.00
2023-02-17T03:14:25.983Z,100.00
2023-02-17T03:16:53.276Z,100.00
2023-02-17T03:19:23.889Z,100.00
2023-02-17T03:21:59.209Z,100.00
2023-02-17T03:24:26.026Z,100.00
2023-02-17T03:26:52.703Z,100.00
2023-02-17T03:29:19.417Z,100.00
2023-02-17T03:31:46.172Z,100.00
2023-02-17T03:34:12.874Z,100.00
2023-02-17T03:36:39.475Z,100.00
2023-02-17T03:39:06.039Z,100.00
2023-02-17T03:41:32.633Z,100.00
2023-02-17T03:43:59.220Z,100.00
2023-02-17T03:46:25.807Z,100.00
2023-02-17T03:48:52.348Z,100.00
2023-02-17T03:51:23.589Z,100.00
2023-02-17T03:53:50.743Z,100.00
2023-02-17T03:56:18.448Z,100.00
2023-02-17T03:58:45.596Z,100.00
2023-02-17T04:01:13.257Z,100.00
2023-02-17T04:03:40.447Z,100.00
2023-02-17T04:06:08.017Z,100.00
2023-02-17T04:08:35.162Z,100.00
2023-02-17T04:11:04.463Z,100.00
2023-02-17T04:13:31.135Z,100.00
2023-02-17T04:15:58.360Z,100.00
2023-02-17T04:18:25.221Z,100.00
2023-02-17T04:20:53.104Z,100.00
2023-02-17T04:23:20.474Z,100.00
2023-02-17T04:25:48.175Z,100.00
2023-02-17T04:28:16.174Z,100.00
2023-02-17T04:30:44.523Z,100.00
2023-02-17T04:33:11.428Z,100.00
2023-02-17T04:35:38.341Z,100.00
2023-02-17T04:38:05.696Z,100.00
2023-02-17T04:40:32.515Z,100.00
2023-02-17T04:42:59.300Z,100.00
2023-02-17T04:45:26.095Z,100.00
2023-02-17T04:47:52.749Z,100.00
2023-02-17T04:50:20.974Z,100.00
2023-02-17T04:52:48.107Z,100.00
2023-02-17T04:55:15.055Z,100.00
2023-02-17T04:57:41.585Z,100.00
2023-02-17T05:00:09.601Z,100.00
2023-02-17T05:02:36.468Z,100.00
2023-02-17T05:05:03.183Z,100.00
2023-02-17T05:07:29.952Z,100.00
2023-02-17T05:09:56.503Z,100.00
2023-02-17T05:12:23.145Z,100.00
2023-02-17T05:14:49.693Z,100.00
2023-02-17T05:17:16.365Z,100.00
2023-02-17T05:19:43.023Z,100.00
2023-02-17T05:22:09.792Z,100.00
2023-02-17T05:24:38.750Z,100.00
2023-02-17T05:27:05.580Z,100.00
2023-02-17T05:29:32.306Z,100.00
2023-02-17T05:31:59.120Z,100.00
2023-02-17T05:34:25.831Z,100.00
2023-02-17T05:36:52.480Z,100.00
2023-02-17T05:39:19.110Z,100.00
2023-02-17T05:41:45.706Z,100.00
2023-02-17T05:44:12.304Z,100.00
2023-02-17T05:46:39.130Z,100.00
2023-02-17T05:49:05.799Z,100.00
2023-02-17T05:51:32.360Z,100.00
2023-02-17T05:53:59.053Z,100.00
2023-02-17T05:56:25.759Z,100.00
2023-02-17T05:58:52.473Z,100.00
2023-02-17T06:01:19.386Z,100.00
2023-02-17T06:03:46.132Z,100.00
2023-02-17T06:06:12.890Z,100.00
2023-02-17T06:08:40.730Z,100.00
2023-02-17T06:11:07.379Z,100.00
2023-02-17T06:13:34.396Z,100.00
2023-02-17T06:16:01.037Z,100.00
2023-02-17T06:18:27.744Z,100.00
2023-02-17T06:20:58.459Z,100.00
2023-02-17T06:23:26.495Z,100.00
2023-02-17T06:25:53.749Z,100.00
2023-02-17T06:28:20.408Z,100.00
2023-02-17T06:30:47.256Z,100.00
2023-02-17T06:33:13.879Z,100.00
2023-02-17T06:35:40.512Z,100.00
2023-02-17T06:38:07.218Z,100.00
2023-02-17T06:40:33.832Z,100.00
2023-02-17T06:43:00.481Z,100.00
2023-02-17T06:45:27.211Z,100.00
2023-02-17T06:47:53.852Z,100.00
2023-02-17T06:50:21.590Z,100.00
2023-02-17T06:52:48.342Z,100.00
2023-02-17T06:55:14.998Z,100.00
2023-02-17T06:57:41.616Z,100.00
2023-02-17T07:00:09.052Z,100.00
2023-02-17T07:02:38.929Z,100.00
2023-02-17T07:05:07.260Z,100.00
2023-02-17T07:07:33.839Z,100.00
2023-02-17T07:10:00.471Z,100.00
2023-02-17T07:12:28.427Z,100.00
2023-02-17T07:14:55.120Z,100.00
2023-02-17T07:17:21.660Z,100.00
2023-02-17T07:19:48.396Z,100.00
2023-02-17T07:22:14.988Z,100.00
2023-02-17T07:24:41.584Z,100.00
2023-02-17T07:27:10.645Z,100.00
2023-02-17T07:29:38.790Z,100.00
2023-02-17T07:32:05.540Z,99.25
2023-02-17T07:34:32.205Z,95.23
2023-02-17T07:36:58.794Z,89.87
2023-02-17T07:39:25.734Z,88.05
2023-02-17T07:41:52.335Z,84.90
2023-02-17T07:44:19.274Z,81.78
2023-02-17T07:46:46.025Z,79.26
2023-02-17T07:49:14.840Z,76.76
2023-02-17T07:51:41.540Z,74.33
2023-02-17T07:54:08.291Z,73.43
2023-02-17T07:56:34.861Z,73.27
2023-02-17T07:59:01.621Z,73.82
2023-02-17T08:01:28.271Z,74.36
2023-02-17T08:03:56.636Z,75.09
2023-02-17T08:06:25.097Z,75.08
2023-02-17T08:09:11.884Z,75.24
2023-02-17T08:11:58.396Z,75.50
2023-02-17T08:14:28.329Z,76.13
2023-02-17T08:16:56.015Z,75.17
2023-02-17T08:19:23.708Z,73.91
2023-02-17T08:21:50.798Z,74.17
2023-02-17T08:24:19.859Z,74.25
2023-02-17T08:26:47.586Z,74.40
2023-02-17T08:29:15.105Z,74.87
2023-02-17T08:31:42.976Z,75.50
2023-02-17T08:34:12.032Z,75.19
2023-02-17T08:36:39.572Z,76.26
2023-02-17T08:39:12.078Z,75.58
2023-02-17T08:41:39.227Z,74.49
2023-02-17T08:44:18.842Z,73.36
2023-02-17T08:46:48.201Z,73.23
2023-02-17T08:49:16.570Z,73.67
2023-02-17T08:51:43.684Z,73.96
2023-02-17T08:54:11.169Z,74.86
2023-02-17T08:56:40.054Z,74.97
2023-02-17T08:59:09.596Z,75.61
2023-02-17T09:01:37.922Z,74.37
2023-02-17T09:04:07.034Z,75.49
2023-02-17T09:06:33.749Z,76.17
2023-02-17T09:09:00.718Z,77.01
2023-02-17T09:11:27.497Z,78.09
2023-02-17T09:13:54.234Z,78.38
2023-02-17T09:16:24.382Z,79.65
2023-02-17T09:18:52.939Z,80.44
2023-02-17T09:21:20.598Z,82.41
2023-02-17T09:23:48.490Z,84.29
2023-02-17T09:26:16.840Z,85.47
2023-02-17T09:28:43.808Z,86.18
2023-02-17T09:31:13.355Z,87.01
2023-02-17T09:33:40.881Z,90.37
2023-02-17T09:36:10.791Z,91.49
2023-02-17T09:38:39.347Z,92.67
2023-02-17T09:41:22.738Z,93.17
2023-02-17T09:43:50.622Z,90.03
2023-02-17T09:46:20.142Z,89.63
2023-02-17T09:48:49.629Z,89.24
2023-02-17T09:51:23.866Z,89.05
2023-02-17T09:54:04.767Z,88.68
2023-02-17T09:56:36.909Z,88.16
2023-02-17T09:59:11.743Z,86.81
2023-02-17T10:01:39.457Z,85.17
2023-02-17T10:04:21.198Z,85.23
2023-02-17T10:06:54.656Z,85.40
2023-02-17T10:09:31.033Z,85.79
2023-02-17T10:12:03.964Z,85.56
2023-02-17T10:14:43.400Z,84.32
2023-02-17T10:17:25.249Z,82.89
2023-02-17T10:20:06.948Z,83.75
2023-02-17T10:22:35.068Z,83.97
2023-02-17T10:25:13.377Z,84.61
2023-02-17T10:27:43.519Z,83.83
2023-02-17T10:30:24.127Z,82.92
2023-02-17T10:33:03.681Z,80.60
2023-02-17T10:36:08.194Z,81.23
2023-02-17T10:38:52.765Z,80.38
2023-02-17T10:41:34.496Z,79.01
2023-02-17T10:44:06.742Z,78.34
2023-02-17T10:46:34.961Z,77.54
2023-02-17T10:49:01.830Z,75.03
2023-02-17T10:51:31.105Z,75.46
2023-02-17T10:54:04.334Z,74.79
2023-02-17T10:56:40.573Z,73.91
2023-02-17T10:59:16.251Z,73.58
2023-02-17T11:01:44.196Z,72.12
2023-02-17T11:04:13.958Z,70.61
2023-02-17T11:06:57.697Z,69.63
2023-02-17T11:09:32.851Z,68.87
2023-02-17T11:12:06.542Z,68.34
2023-02-17T11:14:36.735Z,67.57
2023-02-17T11:17:28.876Z,67.85
2023-02-17T11:19:58.631Z,66.69
2023-02-17T11:22:40.756Z,66.31
2023-02-17T11:25:23.947Z,66.54
2023-02-17T11:28:02.430Z,66.22
2023-02-17T11:30:32.568Z,65.57
2023-02-17T11:32:59.403Z,65.19
2023-02-17T11:35:38.267Z,64.91
2023-02-17T11:38:17.502Z,64.99
2023-02-17T11:41:00.585Z,64.53
2023-02-17T11:43:28.675Z,64.66
2023-02-17T11:46:10.500Z,64.31
2023-02-17T11:49:03.695Z,64.09
2023-02-17T11:51:44.373Z,62.99
2023-02-17T11:54:31.609Z,62.81
2023-02-17T11:57:36.872Z,62.18
2023-02-17T12:00:22.703Z,61.89
2023-02-17T12:03:20.121Z,60.68
2023-02-17T12:05:58.954Z,60.71
2023-02-17T12:08:47.719Z,60.71
2023-02-17T12:11:31.872Z,60.07
2023-02-17T12:14:33.104Z,59.43
2023-02-17T12:17:41.165Z,58.83
2023-02-17T12:20:20.783Z,58.91
2023-02-17T12:23:15.936Z,59.17
2023-02-17T12:25:55.062Z,59.13
2023-02-17T12:28:40.596Z,58.80
2023-02-17T12:31:32.337Z,58.45
2023-02-17T12:34:17.561Z,58.80
2023-02-17T12:36:44.530Z,58.62
2023-02-17T12:39:21.931Z,58.88
2023-02-17T12:41:55.773Z,58.70
2023-02-17T12:44:30.158Z,59.57
2023-02-17T12:47:02.335Z,59.17
2023-02-17T12:49:38.033Z,59.67
2023-02-17T12:52:15.463Z,59.43
2023-02-17T12:54:54.425Z,60.21
2023-02-17T12:57:58.308Z,60.28
2023-02-17T13:00:35.014Z,61.23
2023-02-17T13:03:03.712Z,60.99
2023-02-17T13:05:37.871Z,61.25
2023-02-17T13:08:16.160Z,61.53
2023-02-17T13:10:42.951Z,61.76
2023-02-17T13:13:09.518Z,61.87
2023-02-17T13:15:46.953Z,62.31
2023-02-17T13:18:35.465Z,62.82
2023-02-17T13:21:18.372Z,62.97
2023-02-17T13:23:58.076Z,63.22
2023-02-17T13:26:30.241Z,63.19
2023-02-17T13:29:19.463Z,63.17
2023-02-17T13:31:55.825Z,63.77
2023-02-17T13:34:36.087Z,63.58
2023-02-17T13:37:24.060Z,63.93
2023-02-17T13:39:51.039Z,64.14
2023-02-17T13:42:47.760Z,63.56
2023-02-17T13:46:13.007Z,64.01
2023-02-17T13:48:39.582Z,64.04
2023-02-17T13:51:23.657Z,64.14
2023-02-17T13:53:50.876Z,64.55
2023-02-17T13:56:30.622Z,64.59
2023-02-17T13:59:20.393Z,64.83
2023-02-17T14:01:47.282Z,64.95
2023-02-17T14:04:32.606Z,64.80
2023-02-17T14:07:04.011Z,65.26
2023-02-17T14:09:33.162Z,65.28
2023-02-17T14:12:04.242Z,64.92
2023-02-17T14:14:36.743Z,65.46
2023-02-17T14:17:13.171Z,65.51
2023-02-17T14:19:45.660Z,65.64
2023-02-17T14:22:28.641Z,65.54
2023-02-17T14:25:25.874Z,65.75
2023-02-17T14:27:52.945Z,65.57
2023-02-17T14:30:37.689Z,65.63
2023-02-17T14:33:22.622Z,65.87
2023-02-17T14:35:56.955Z,65.64
2023-02-17T14:38:28.514Z,65.59
2023-02-17T14:40:56.016Z,65.44
2023-02-17T14:43:23.648Z,65.54
2023-02-17T14:45:51.480Z,65.58
2023-02-17T14:48:18.339Z,65.54
2023-02-17T14:50:45.610Z,65.65
2023-02-17T14:53:33.726Z,65.94
2023-02-17T14:56:06.781Z,66.05
2023-02-17T14:58:34.056Z,65.73
2023-02-17T15:01:00.710Z,65.65
2023-02-17T15:03:27.349Z,65.74
2023-02-17T15:05:54.237Z,65.24
2023-02-17T15:08:25.309Z,65.26
2023-02-17T15:10:51.952Z,65.08
2023-02-17T15:13:21.688Z,65.05
2023-02-17T15:15:49.670Z,65.00
2023-02-17T15:18:18.657Z,64.71
2023-02-17T15:20:48.086Z,64.65
2023-02-17T15:23:17.704Z,64.27
2023-02-17T15:25:45.470Z,63.97
2023-02-17T15:28:13.992Z,63.39
2023-02-17T15:30:40.839Z,62.79
2023-02-17T15:33:13.809Z,62.58
2023-02-17T15:35:40.877Z,62.82
2023-02-17T15:38:12.626Z,62.67
2023-02-17T15:40:40.576Z,63.21
2023-02-17T15:43:12.254Z,62.93
2023-02-17T15:45:38.918Z,62.80
2023-02-17T15:48:15.476Z,62.30
2023-02-17T15:50:42.228Z,62.74
2023-02-17T15:53:08.794Z,62.47
2023-02-17T15:55:35.489Z,62.18
2023-02-17T15:58:04.437Z,62.24
2023-02-17T16:00:34.068Z,62.26
2023-02-17T16:03:00.850Z,61.85
2023-02-17T16:05:29.753Z,62.11
2023-02-17T16:07:56.581Z,62.12
2023-02-17T16:10:27.354Z,61.92
2023-02-17T16:12:57.056Z,61.95
2023-02-17T16:15:26.002Z,61.71
2023-02-17T16:17:52.981Z,62.00
2023-02-17T16:20:27.610Z,61.94
2023-02-17T16:22:54.310Z,61.89
2023-02-17T16:25:22.284Z,61.79
2023-02-17T16:27:51.118Z,61.71
2023-02-17T16:30:20.078Z,61.78
2023-02-17T16:32:47.654Z,62.00
2023-02-17T16:35:22.924Z,61.89
2023-02-17T16:37:54.155Z,61.74
2023-02-17T16:40:23.252Z,61.75
2023-02-17T16:42:50.343Z,62.19
2023-02-17T16:45:19.322Z,62.28
2023-02-17T16:47:49.241Z,62.66
2023-02-17T16:50:30.100Z,62.50
2023-02-17T16:53:02.797Z,62.71
2023-02-17T16:55:32.338Z,63.07
2023-02-17T16:57:59.154Z,63.06
2023-02-17T17:00:29.668Z,63.40
2023-02-17T17:02:57.482Z,63.52
2023-02-17T17:05:26.373Z,63.37
2023-02-17T17:07:53.006Z,63.54
2023-02-17T17:10:26.971Z,63.51
2023-02-17T17:12:54.058Z,63.98
2023-02-17T17:15:21.458Z,64.37
2023-02-17T17:17:55.075Z,64.14
2023-02-17T17:20:26.909Z,64.01
2023-02-17T17:22:53.760Z,63.59
2023-02-17T17:25:20.445Z,63.88
2023-02-17T17:27:47.145Z,64.06
2023-02-17T17:30:19.878Z,63.96
2023-02-17T17:32:46.622Z,63.77
2023-02-17T17:35:14.198Z,63.75
2023-02-17T17:37:40.971Z,64.41
2023-02-17T17:40:14.492Z,64.20
2023-02-17T17:42:41.133Z,64.52
2023-02-17T17:45:08.606Z,64.69
2023-02-17T17:47:35.404Z,64.80
2023-02-17T17:50:02.065Z,65.08
2023-02-17T17:52:28.793Z,64.98
2023-02-17T17:54:55.468Z,64.87
2023-02-17T17:57:22.566Z,65.05
2023-02-17T17:59:49.263Z,65.04
2023-02-17T18:02:16.055Z,65.19
2023-02-17T18:04:42.798Z,65.07
2023-02-17T18:07:09.810Z,65.29
2023-02-17T18:09:38.604Z,64.93
2023-02-17T18:12:11.443Z,65.12
2023-02-17T18:14:40.380Z,65.14
2023-02-17T18:17:09.668Z,65.41
2023-02-17T18:19:36.299Z,65.13
2023-02-17T18:22:03.062Z,65.69
2023-02-17T18:24:29.982Z,65.33
2023-02-17T18:26:56.856Z,65.70
2023-02-17T18:29:23.522Z,66.09
2023-02-17T18:31:50.523Z,66.22
2023-02-17T18:34:17.188Z,66.43
2023-02-17T18:36:43.809Z,66.60
2023-02-17T18:39:10.456Z,66.78
2023-02-17T18:41:37.661Z,66.68
2023-02-17T18:44:05.436Z,66.58
2023-02-17T18:46:35.193Z,67.10
2023-02-17T18:49:01.848Z,67.11
2023-02-17T18:51:28.574Z,67.47
2023-02-17T18:53:59.337Z,67.55
2023-02-17T18:56:28.921Z,67.91
2023-02-17T18:58:56.160Z,67.75
2023-02-17T19:01:26.614Z,68.04
2023-02-17T19:03:54.455Z,68.54
2023-02-17T19:06:24.336Z,68.36
2023-02-17T19:08:51.475Z,68.51
2023-02-17T19:11:20.022Z,68.59
2023-02-17T19:13:47.971Z,68.98
2023-02-17T19:16:21.100Z,68.97
2023-02-17T19:18:48.449Z,69.37
2023-02-17T19:21:16.275Z,69.37
2023-02-17T19:23:42.905Z,69.00
2023-02-17T19:26:11.888Z,69.36
2023-02-17T19:28:40.419Z,68.89
2023-02-17T19:31:15.575Z,69.13
2023-02-17T19:33:44.371Z,69.17
2023-02-17T19:36:13.601Z,69.11
2023-02-17T19:38:40.698Z,69.58
2023-02-17T19:41:10.113Z,69.54
2023-02-17T19:43:36.748Z,69.88
2023-02-17T19:46:04.287Z,70.29
2023-02-17T19:48:30.976Z,70.54
2023-02-17T19:51:03.781Z,70.95
2023-02-17T19:53:31.721Z,70.51
2023-02-17T19:56:12.089Z,70.69
2023-02-17T19:58:40.617Z,69.82
2023-02-17T20:01:09.648Z,69.84
2023-02-17T20:03:36.744Z,69.49
2023-02-17T20:06:25.697Z,69.44
2023-02-17T20:09:00.471Z,69.24
2023-02-17T20:11:28.402Z,69.05
2023-02-17T20:13:57.764Z,68.34
2023-02-17T20:16:25.369Z,68.44
2023-02-17T20:18:51.989Z,68.47
2023-02-17T20:21:24.765Z,68.39
2023-02-17T20:23:52.469Z,68.85
2023-02-17T20:26:25.438Z,69.27
2023-02-17T20:28:52.573Z,69.45
2023-02-17T20:31:20.126Z,69.61
2023-02-17T20:33:47.559Z,69.82
2023-02-17T20:36:14.277Z,70.45
2023-02-17T20:38:41.400Z,71.06
2023-02-17T20:41:09.626Z,71.19
2023-02-17T20:43:38.010Z,71.83
2023-02-17T20:46:05.383Z,71.67
2023-02-17T20:48:32.799Z,71.62
2023-02-17T20:50:59.514Z,71.91
2023-02-17T20:53:26.736Z,71.70
2023-02-17T20:55:53.358Z,71.85
2023-02-17T20:58:19.976Z,72.29
2023-02-17T21:00:47.378Z,72.75
2023-02-17T21:03:14.842Z,73.01
2023-02-17T21:05:41.724Z,73.62
2023-02-17T21:08:08.382Z,73.49
2023-02-17T21:10:35.025Z,73.88
2023-02-17T21:13:01.739Z,73.91
2023-02-17T21:15:28.435Z,74.04
2023-02-17T21:17:55.064Z,73.74
2023-02-17T21:20:22.688Z,73.27
2023-02-17T21:22:49.540Z,73.70
2023-02-17T21:25:16.104Z,73.32
2023-02-17T21:27:42.769Z,73.13
2023-02-17T21:30:11.836Z,73.12
2023-02-17T21:32:38.633Z,73.22
2023-02-17T21:35:06.333Z,73.24
2023-02-17T21:37:34.228Z,73.25
2023-02-17T21:40:01.764Z,72.75
2023-02-17T21:42:47.049Z,72.76
2023-02-17T21:45:13.785Z,72.70
2023-02-17T21:47:40.350Z,72.72
2023-02-17T21:50:07.546Z,72.19
2023-02-17T21:52:34.147Z,72.51
2023-02-17T21:55:01.626Z,71.91
2023-02-17T21:57:28.312Z,71.93
2023-02-17T21:59:54.939Z,71.82
2023-02-17T22:02:21.577Z,71.83
2023-02-17T22:04:48.263Z,71.18
2023-02-17T22:07:14.878Z,71.51
2023-02-17T22:09:41.610Z,71.07
2023-02-17T22:12:08.240Z,70.60
2023-02-17T22:14:34.862Z,70.56
2023-02-17T22:17:01.562Z,70.57
2023-02-17T22:19:31.263Z,69.82
2023-02-17T22:21:58.504Z,69.69
2023-02-17T22:24:27.289Z,69.73
2023-02-17T22:26:54.668Z,69.62
2023-02-17T22:29:21.364Z,69.61
2023-02-17T22:31:50.297Z,69.38
2023-02-17T22:34:17.238Z,69.01
2023-02-17T22:36:43.792Z,68.41
2023-02-17T22:39:10.500Z,68.50
2023-02-17T22:41:38.677Z,68.00
2023-02-17T22:44:05.383Z,67.93
2023-02-17T22:46:32.275Z,68.01
2023-02-17T22:48:59.449Z,67.84
2023-02-17T22:51:32.072Z,67.90
2023-02-17T22:54:00.908Z,67.94
2023-02-17T22:56:28.415Z,67.34
2023-02-17T22:59:00.811Z,67.43
2023-02-17T23:01:29.709Z,66.71
2023-02-17T23:03:56.401Z,66.30
2023-02-17T23:06:34.816Z,66.31
2023-02-17T23:09:02.129Z,66.09
2023-02-17T23:11:49.981Z,66.28
2023-02-17T23:14:25.656Z,66.11
2023-02-17T23:16:54.465Z,66.14
2023-02-17T23:19:22.867Z,65.67
2023-02-17T23:21:53.129Z,65.89
2023-02-17T23:24:21.828Z,65.63
2023-02-17T23:26:49.277Z,65.61
2023-02-17T23:29:16.629Z,65.12
2023-02-17T23:31:43.487Z,65.64
2023-02-17T23:34:12.294Z,65.53
2023-02-17T23:36:40.645Z,64.72
2023-02-17T23:39:07.508Z,64.40
2023-02-17T23:41:38.650Z,64.32
2023-02-17T23:44:07.768Z,64.77
2023-02-17T23:46:34.835Z,64.92
2023-02-17T23:49:01.530Z,65.35
2023-02-17T23:51:28.186Z,65.27
2023-02-17T23:53:54.801Z,65.17
2023-02-17T23:56:31.148Z,65.06
2023-02-17T23:58:57.874Z,64.74
